sensor_id;sensor_type;location;lat;lon;timestamp;pressure;altitude;pressure_sealevel;temperature;humidity
43553;BME280;29153;42.696;23.218;2023-06-26T00:01:41;94242.50;;;18.80;100.00
43553;BME280;29153;42.696;23.218;2023-06-26T00:04:09;94296.30;;;19.17;100.00
43553;BME280;29153;42.696;23.218;2023-06-26T00:06:38;94294.14;;;19.10;100.00
43553;BME280;29153;42.696;23.218;2023-06-26T00:09:06;94292.48;;;19.12;100.00
43553;BME280;29153;42.696;23.218;2023-06-26T00:11:33;94292.02;;;19.09;100.00
43553;BME280;29153;42.696;23.218;2023-06-26T00:14:02;94291.45;;;19.10;100.00
43553;BME280;29153;42.696;23.218;2023-06-26T00:16:29;94293.70;;;19.08;100.00
43553;BME280;29153;42.696;23.218;2023-06-26T00:19:02;94302.75;;;19.09;100.00
43553;BME280;29153;42.696;23.218;2023-06-26T00:21:28;94295.02;;;19.02;100.00
43553;BME280;29153;42.696;23.218;2023-06-26T00:23:55;94293.70;;;19.08;100.00
43553;BME280;29153;42.696;23.218;2023-06-26T00:26:23;94300.19;;;19.07;100.00
43553;BME280;29153;42.696;23.218;2023-06-26T00:28:50;94299.72;;;19.05;100.00
43553;BME280;29153;42.696;23.218;2023-06-26T00:31:18;94294.91;;;19.04;100.00
43553;BME280;29153;42.696;23.218;2023-06-26T00:33:46;94287.31;;;19.06;100.00
43553;BME280;29153;42.696;23.218;2023-06-26T00:36:13;94294.23;;;19.01;100.00
43553;BME280;29153;42.696;23.218;2023-06-26T00:38:42;94294.23;;;19.01;100.00
43553;BME280;29153;42.696;23.218;2023-06-26T00:41:11;94287.95;;;18.97;100.00
43553;BME280;29153;42.696;23.218;2023-06-26T00:43:39;94290.05;;;18.92;100.00
43553;BME280;29153;42.696;23.218;2023-06-26T00:46:09;94289.19;;;19.00;100.00
43553;BME280;29153;42.696;23.218;2023-06-26T00:48:43;94288.86;;;19.01;100.00
43553;BME280;29153;42.696;23.218;2023-06-26T00:51:11;94291.42;;;18.98;100.00
43553;BME280;29153;42.696;23.218;2023-06-26T00:53:38;94287.72;;;18.96;100.00
43553;BME280;29153;42.696;23.218;2023-06-26T00:56:06;94284.57;;;18.88;100.00
43553;BME280;29153;42.696;23.218;2023-06-26T00:58:35;94279.67;;;18.96;100.00
43553;BME280;29153;42.696;23.218;2023-06-26T01:01:03;94278.09;;;18.89;100.00
43553;BME280;29153;42.696;23.218;2023-06-26T01:03:32;94268.03;;;18.86;100.00
43553;BME280;29153;42.696;23.218;2023-06-26T01:06:00;94270.04;;;18.89;100.00
43553;BME280;29153;42.696;23.218;2023-06-26T01:08:29;94263.33;;;18.89;100.00
43553;BME280;29153;42.696;23.218;2023-06-26T01:10:57;94269.57;;;18.81;100.00
43553;BME280;29153;42.696;23.218;2023-06-26T01:13:27;94264.41;;;18.76;100.00
43553;BME280;29153;42.696;23.218;2023-06-26T01:15:57;94263.53;;;18.78;100.00
43553;BME280;29153;42.696;23.218;2023-06-26T01:18:26;94261.95;;;18.83;100.00
43553;BME280;29153;42.696;23.218;2023-06-26T01:20:56;94253.23;;;18.80;100.00
43553;BME280;29153;42.696;23.218;2023-06-26T01:26:20;94248.27;;;18.70;100.00
43553;BME280;29153;42.696;23.218;2023-06-26T01:28:50;94251.83;;;18.62;100.00
43553;BME280;29153;42.696;23.218;2023-06-26T01:31:19;94252.96;;;18.61;100.00
43553;BME280;29153;42.696;23.218;2023-06-26T01:33:47;94244.91;;;18.61;100.00
43553;BME280;29153;42.696;23.218;2023-06-26T01:36:16;94246.22;;;18.55;100.00
43553;BME280;29153;42.696;23.218;2023-06-26T01:38:43;94239.68;;;18.50;100.00
43553;BME280;29153;42.696;23.218;2023-06-26T01:41:12;94171.52;;;17.97;100.00
43553;BME280;29153;42.696;23.218;2023-06-26T01:44:09;94242.12;;;18.43;100.00
43553;BME280;29153;42.696;23.218;2023-06-26T01:49:49;94243.41;;;18.31;100.00
43553;BME280;29153;42.696;23.218;2023-06-26T01:52:46;94240.38;;;18.32;100.00
43553;BME280;29153;42.696;23.218;2023-06-26T01:55:28;94236.00;;;18.28;100.00
43553;BME280;29153;42.696;23.218;2023-06-26T01:57:56;94233.66;;;18.26;100.00
43553;BME280;29153;42.696;23.218;2023-06-26T02:00:25;94231.97;;;18.22;100.00
43553;BME280;29153;42.696;23.218;2023-06-26T02:02:53;94234.41;;;18.20;100.00
43553;BME280;29153;42.696;23.218;2023-06-26T02:05:20;94231.97;;;18.22;100.00
43553;BME280;29153;42.696;23.218;2023-06-26T02:07:50;94229.96;;;18.25;100.00
43553;BME280;29153;42.696;23.218;2023-06-26T02:10:17;94231.73;;;18.20;100.00
43553;BME280;29153;42.696;23.218;2023-06-26T02:12:45;94231.50;;;18.19;100.00
43553;BME280;29153;42.696;23.218;2023-06-26T02:15:12;94234.29;;;18.17;100.00
43553;BME280;29153;42.696;23.218;2023-06-26T02:17:40;94231.69;;;18.14;100.00
43553;BME280;29153;42.696;23.218;2023-06-26T02:20:08;94226.13;;;18.13;100.00
43553;BME280;29153;42.696;23.218;2023-06-26T02:22:36;94225.88;;;18.12;100.00
43553;BME280;29153;42.696;23.218;2023-06-26T02:25:04;94225.63;;;18.05;100.00
43553;BME280;29153;42.696;23.218;2023-06-26T02:27:32;94224.92;;;18.02;100.00
43553;BME280;29153;42.696;23.218;2023-06-26T02:30:00;94221.80;;;18.00;100.00
43553;BME280;29153;42.696;23.218;2023-06-26T02:32:27;94229.84;;;18.00;100.00
43553;BME280;29153;42.696;23.218;2023-06-26T02:34:55;94222.78;;;17.96;100.00
43553;BME280;29153;42.696;23.218;2023-06-26T02:37:22;94222.78;;;17.96;100.00
43553;BME280;29153;42.696;23.218;2023-06-26T02:39:50;94223.20;;;17.92;100.00
43553;BME280;29153;42.696;23.218;2023-06-26T02:42:17;94230.27;;;17.96;100.00
43553;BME280;29153;42.696;23.218;2023-06-26T02:44:45;94230.27;;;17.96;100.00
43553;BME280;29153;42.696;23.218;2023-06-26T02:47:12;94235.34;;;17.89;100.00
43553;BME280;29153;42.696;23.218;2023-06-26T02:49:40;94229.07;;;17.85;100.00
43553;BME280;29153;42.696;23.218;2023-06-26T02:52:08;94227.97;;;17.86;100.00
43553;BME280;29153;42.696;23.218;2023-06-26T02:54:35;94242.47;;;17.85;100.00
43553;BME280;29153;42.696;23.218;2023-06-26T02:57:03;94238.58;;;17.89;100.00
43553;BME280;29153;42.696;23.218;2023-06-26T02:59:30;94236.24;;;17.87;100.00
43553;BME280;29153;42.696;23.218;2023-06-26T03:01:58;94237.11;;;17.85;100.00
43553;BME280;29153;42.696;23.218;2023-06-26T03:04:25;94239.34;;;17.83;100.00
43553;BME280;29153;42.696;23.218;2023-06-26T03:06:53;94239.22;;;17.80;100.00
43553;BME280;29153;42.696;23.218;2023-06-26T03:09:21;94233.70;;;17.76;100.00
43553;BME280;29153;42.696;23.218;2023-06-26T03:11:48;94240.38;;;17.70;100.00
43553;BME280;29153;42.696;23.218;2023-06-26T03:14:16;94243.66;;;17.76;100.00
43553;BME280;29153;42.696;23.218;2023-06-26T03:16:43;94240.39;;;17.76;100.00
43553;BME280;29153;42.696;23.218;2023-06-26T03:19:11;94244.34;;;17.79;100.00
43553;BME280;29153;42.696;23.218;2023-06-26T03:21:38;94240.19;;;17.75;100.00
43553;BME280;29153;42.696;23.218;2023-06-26T03:24:06;94240.21;;;17.81;100.00
43553;BME280;29153;42.696;23.218;2023-06-26T03:26:34;94242.05;;;17.89;100.00
43553;BME280;29153;42.696;23.218;2023-06-26T03:29:01;94243.39;;;17.89;100.00
43553;BME280;29153;42.696;23.218;2023-06-26T03:31:29;94243.39;;;17.89;100.00
43553;BME280;29153;42.696;23.218;2023-06-26T03:33:56;94243.26;;;17.86;100.00
43553;BME280;29153;42.696;23.218;2023-06-26T03:36:24;94243.73;;;17.88;100.00
43553;BME280;29153;42.696;23.218;2023-06-26T03:38:51;94245.45;;;17.98;100.00
43553;BME280;29153;42.696;23.218;2023-06-26T03:41:21;94249.47;;;17.98;100.00
43553;BME280;29153;42.696;23.218;2023-06-26T03:43:48;94241.61;;;18.08;100.00
43553;BME280;29153;42.696;23.218;2023-06-26T03:46:16;94246.54;;;17.91;100.00
43553;BME280;29153;42.696;23.218;2023-06-26T03:48:43;94246.78;;;17.92;100.00
43553;BME280;29153;42.696;23.218;2023-06-26T03:51:11;94245.50;;;18.04;100.00
43553;BME280;29153;42.696;23.218;2023-06-26T03:53:39;94244.18;;;18.10;100.00
43553;BME280;29153;42.696;23.218;2023-06-26T03:56:06;94240.76;;;18.16;100.00
43553;BME280;29153;42.696;23.218;2023-06-26T03:58:34;94241.30;;;18.09;100.00
43553;BME280;29153;42.696;23.218;2023-06-26T04:01:01;94246.73;;;18.07;100.00
43553;BME280;29153;42.696;23.218;2023-06-26T04:03:29;94245.99;;;18.12;100.00
43553;BME280;29153;42.696;23.218;2023-06-26T04:05:57;94243.31;;;18.12;100.00
43553;BME280;29153;42.696;23.218;2023-06-26T04:08:25;94241.86;;;18.15;100.00
43553;BME280;29153;42.696;23.218;2023-06-26T04:10:59;94241.91;;;18.21;100.00
43553;BME280;29153;42.696;23.218;2023-06-26T04:13:30;94246.53;;;18.33;100.00
43553;BME280;29153;42.696;23.218;2023-06-26T04:15:57;94251.83;;;18.41;100.00
43553;BME280;29153;42.696;23.218;2023-06-26T04:18:25;94244.68;;;18.39;100.00
43553;BME280;29153;42.696;23.218;2023-06-26T04:21:10;94245.04;;;18.44;100.00
43553;BME280;29153;42.696;23.218;2023-06-26T04:23:39;94243.06;;;18.53;100.00
43553;BME280;29153;42.696;23.218;2023-06-26T04:26:08;94245.59;;;18.49;100.00
43553;BME280;29153;42.696;23.218;2023-06-26T04:28:37;94252.69;;;18.54;100.00
43553;BME280;29153;42.696;23.218;2023-06-26T04:31:08;94253.59;;;18.58;100.00
43553;BME280;29153;42.696;23.218;2023-06-26T04:33:36;94258.56;;;18.68;100.00
43553;BME280;29153;42.696;23.218;2023-06-26T04:36:09;94253.67;;;18.76;100.00
43553;BME280;29153;42.696;23.218;2023-06-26T04:38:34;94252.62;;;19.01;100.00
43553;BME280;29153;42.696;23.218;2023-06-26T04:41:02;94253.53;;;19.18;100.00
43553;BME280;29153;42.696;23.218;2023-06-26T04:43:29;94258.61;;;19.37;100.00
43553;BME280;29153;42.696;23.218;2023-06-26T04:45:57;94256.19;;;19.63;100.00
43553;BME280;29153;42.696;23.218;2023-06-26T04:48:25;94260.64;;;19.77;100.00
43553;BME280;29153;42.696;23.218;2023-06-26T04:50:57;94263.00;;;19.78;100.00
43553;BME280;29153;42.696;23.218;2023-06-26T04:53:25;94268.05;;;19.98;100.00
43553;BME280;29153;42.696;23.218;2023-06-26T04:55:55;94269.89;;;20.22;100.00
43553;BME280;29153;42.696;23.218;2023-06-26T04:58:23;94263.82;;;20.37;100.00
43553;BME280;29153;42.696;23.218;2023-06-26T05:00:51;94259.09;;;20.46;100.00
43553;BME280;29153;42.696;23.218;2023-06-26T05:03:18;94264.87;;;20.66;100.00
43553;BME280;29153;42.696;23.218;2023-06-26T05:05:47;94269.25;;;20.59;97.58
43553;BME280;29153;42.696;23.218;2023-06-26T05:08:22;94265.16;;;20.43;97.32
43553;BME280;29153;42.696;23.218;2023-06-26T05:10:53;94270.13;;;20.17;98.89
43553;BME280;29153;42.696;23.218;2023-06-26T05:15:59;94281.44;;;20.34;99.15
43553;BME280;29153;42.696;23.218;2023-06-26T05:18:26;94278.16;;;20.41;99.18
43553;BME280;29153;42.696;23.218;2023-06-26T05:20:54;94279.30;;;20.40;99.17
43553;BME280;29153;42.696;23.218;2023-06-26T05:23:21;94275.64;;;20.60;99.42
43553;BME280;29153;42.696;23.218;2023-06-26T05:25:50;94276.89;;;20.57;96.69
43553;BME280;29153;42.696;23.218;2023-06-26T05:28:20;94275.80;;;20.45;97.96
43553;BME280;29153;42.696;23.218;2023-06-26T05:30:48;94280.52;;;20.49;97.50
43553;BME280;29153;42.696;23.218;2023-06-26T05:33:17;94286.45;;;20.48;97.15
43553;BME280;29153;42.696;23.218;2023-06-26T05:35:48;94284.32;;;20.48;98.46
43553;BME280;29153;42.696;23.218;2023-06-26T05:38:17;94281.92;;;20.58;97.41
43553;BME280;29153;42.696;23.218;2023-06-26T05:40:45;94280.70;;;20.62;98.47
43553;BME280;29153;42.696;23.218;2023-06-26T05:43:13;94289.09;;;20.66;96.70
43553;BME280;29153;42.696;23.218;2023-06-26T05:45:41;94290.21;;;20.65;96.18
43553;BME280;29153;42.696;23.218;2023-06-26T05:48:09;94291.22;;;20.88;96.38
43553;BME280;29153;42.696;23.218;2023-06-26T05:50:37;94293.27;;;20.85;96.67
43553;BME280;29153;42.696;23.218;2023-06-26T05:53:04;94292.09;;;20.99;94.69
43553;BME280;29153;42.696;23.218;2023-06-26T05:55:32;94301.01;;;21.15;95.51
43553;BME280;29153;42.696;23.218;2023-06-26T05:58:00;94295.27;;;21.10;92.68
43553;BME280;29153;42.696;23.218;2023-06-26T06:00:29;94299.78;;;21.06;91.75
43553;BME280;29153;42.696;23.218;2023-06-26T06:02:57;94294.85;;;21.08;93.16
43553;BME280;29153;42.696;23.218;2023-06-26T06:05:29;94296.16;;;21.20;92.95
43553;BME280;29153;42.696;23.218;2023-06-26T06:07:57;94299.70;;;21.30;92.35
43553;BME280;29153;42.696;23.218;2023-06-26T06:10:24;94302.40;;;21.30;91.29
43553;BME280;29153;42.696;23.218;2023-06-26T06:12:52;94295.61;;;21.37;91.74
43553;BME280;29153;42.696;23.218;2023-06-26T06:15:34;94294.48;;;21.38;92.30
43553;BME280;29153;42.696;23.218;2023-06-26T06:17:54;94302.66;;;21.41;91.91
43553;BME280;29153;42.696;23.218;2023-06-26T06:20:21;94300.35;;;21.49;92.40
43553;BME280;29153;42.696;23.218;2023-06-26T06:22:49;94294.81;;;21.73;92.14
43553;BME280;29153;42.696;23.218;2023-06-26T06:25:17;94304.41;;;21.80;90.88
43553;BME280;29153;42.696;23.218;2023-06-26T06:27:45;94302.83;;;21.48;89.18
43553;BME280;29153;42.696;23.218;2023-06-26T06:30:15;94306.08;;;21.32;89.35
43553;BME280;29153;42.696;23.218;2023-06-26T06:32:42;94297.04;;;21.40;89.60
43553;BME280;29153;42.696;23.218;2023-06-26T06:35:10;94294.85;;;21.52;91.02
43553;BME280;29153;42.696;23.218;2023-06-26T06:37:38;94289.80;;;21.50;90.39
43553;BME280;29153;42.696;23.218;2023-06-26T06:40:08;94289.23;;;21.66;91.23
43553;BME280;29153;42.696;23.218;2023-06-26T06:42:36;94289.67;;;21.68;90.70
43553;BME280;29153;42.696;23.218;2023-06-26T06:45:03;94300.84;;;21.76;89.32
43553;BME280;29153;42.696;23.218;2023-06-26T06:47:34;94300.14;;;21.95;88.17
43553;BME280;29153;42.696;23.218;2023-06-26T06:50:02;94299.80;;;21.97;87.04
43553;BME280;29153;42.696;23.218;2023-06-26T06:52:31;94297.27;;;22.04;87.39
43553;BME280;29153;42.696;23.218;2023-06-26T06:54:59;94300.78;;;22.14;86.60
43553;BME280;29153;42.696;23.218;2023-06-26T06:57:28;94298.57;;;22.45;87.03
43553;BME280;29153;42.696;23.218;2023-06-26T06:59:56;94307.95;;;22.41;84.39
43553;BME280;29153;42.696;23.218;2023-06-26T07:02:23;94299.30;;;22.61;84.35
43553;BME280;29153;42.696;23.218;2023-06-26T07:04:50;94275.48;;;22.03;82.00
43553;BME280;29153;42.696;23.218;2023-06-26T07:07:19;94301.05;;;22.44;82.78
43553;BME280;29153;42.696;23.218;2023-06-26T07:09:47;94290.89;;;22.37;83.66
43553;BME280;29153;42.696;23.218;2023-06-26T07:12:14;94297.52;;;22.49;83.27
43553;BME280;29153;42.696;23.218;2023-06-26T07:14:42;94296.88;;;22.65;83.91
43553;BME280;29153;42.696;23.218;2023-06-26T07:17:11;94302.26;;;22.72;85.32
43553;BME280;29153;42.696;23.218;2023-06-26T07:19:39;94296.88;;;22.65;81.53
43553;BME280;29153;42.696;23.218;2023-06-26T07:22:08;94302.56;;;22.60;81.32
43553;BME280;29153;42.696;23.218;2023-06-26T07:24:35;94222.28;;;21.78;81.04
43553;BME280;29153;42.696;23.218;2023-06-26T07:27:03;94301.84;;;22.44;79.76
43553;BME280;29153;42.696;23.218;2023-06-26T07:29:30;94293.02;;;22.47;82.70
43553;BME280;29153;42.696;23.218;2023-06-26T07:31:58;94299.16;;;22.54;78.94
43553;BME280;29153;42.696;23.218;2023-06-26T07:34:25;94294.90;;;22.62;81.76
43553;BME280;29153;42.696;23.218;2023-06-26T07:36:53;94297.79;;;22.63;80.79
43553;BME280;29153;42.696;23.218;2023-06-26T07:39:21;94298.44;;;22.57;80.72
43553;BME280;29153;42.696;23.218;2023-06-26T07:41:48;94288.67;;;22.87;83.29
43553;BME280;29153;42.696;23.218;2023-06-26T07:44:18;94270.98;;;22.71;79.28
43553;BME280;29153;42.696;23.218;2023-06-26T07:46:55;94302.52;;;22.86;76.99
43553;BME280;29153;42.696;23.218;2023-06-26T07:49:21;94308.12;;;23.44;77.72
43553;BME280;29153;42.696;23.218;2023-06-26T07:51:50;94305.86;;;23.82;74.07
43553;BME280;29153;42.696;23.218;2023-06-26T07:54:17;94309.19;;;23.85;71.36
43553;BME280;29153;42.696;23.218;2023-06-26T07:57:05;94299.27;;;24.06;73.02
43553;BME280;29153;42.696;23.218;2023-06-26T07:59:30;94299.26;;;24.72;71.05
43553;BME280;29153;42.696;23.218;2023-06-26T08:02:09;94303.53;;;25.19;70.31
43553;BME280;29153;42.696;23.218;2023-06-26T08:04:36;94294.45;;;25.05;66.63
43553;BME280;29153;42.696;23.218;2023-06-26T08:07:04;94309.48;;;25.32;66.75
43553;BME280;29153;42.696;23.218;2023-06-26T08:09:32;94300.54;;;25.11;66.26
43553;BME280;29153;42.696;23.218;2023-06-26T08:12:03;94290.79;;;25.23;70.29
43553;BME280;29153;42.696;23.218;2023-06-26T08:14:32;94290.83;;;25.27;68.10
43553;BME280;29153;42.696;23.218;2023-06-26T08:17:00;94291.64;;;25.31;65.36
43553;BME280;29153;42.696;23.218;2023-06-26T08:19:27;94285.55;;;25.81;66.21
43553;BME280;29153;42.696;23.218;2023-06-26T08:21:55;94286.63;;;25.97;60.48
43553;BME280;29153;42.696;23.218;2023-06-26T08:24:21;94286.58;;;25.90;63.74
43553;BME280;29153;42.696;23.218;2023-06-26T08:26:49;94275.60;;;25.76;63.88
43553;BME280;29153;42.696;23.218;2023-06-26T08:29:17;94285.17;;;26.31;60.21
43553;BME280;29153;42.696;23.218;2023-06-26T08:31:44;94290.15;;;26.21;62.01
43553;BME280;29153;42.696;23.218;2023-06-26T08:34:14;94287.70;;;25.86;62.31
43553;BME280;29153;42.696;23.218;2023-06-26T08:36:42;94283.91;;;25.97;62.09
43553;BME280;29153;42.696;23.218;2023-06-26T08:39:11;94289.64;;;26.09;62.32
43553;BME280;29153;42.696;23.218;2023-06-26T08:45:00;94284.84;;;26.39;62.70
43553;BME280;29153;42.696;23.218;2023-06-26T08:47:30;94287.52;;;26.12;59.16
43553;BME280;29153;42.696;23.218;2023-06-26T08:50:07;94290.93;;;26.02;59.66
43553;BME280;29153;42.696;23.218;2023-06-26T08:52:49;94293.27;;;25.56;60.43
43553;BME280;29153;42.696;23.218;2023-06-26T08:55:16;94289.88;;;25.90;58.65
43553;BME280;29153;42.696;23.218;2023-06-26T08:57:46;94286.33;;;26.64;57.17
43553;BME280;29153;42.696;23.218;2023-06-26T09:00:13;94193.44;;;26.41;63.11
43553;BME280;29153;42.696;23.218;2023-06-26T09:02:44;94281.52;;;27.19;61.37
43553;BME280;29153;42.696;23.218;2023-06-26T09:05:19;94290.40;;;26.64;55.76
43553;BME280;29153;42.696;23.218;2023-06-26T09:07:54;94280.67;;;26.01;60.02
43553;BME280;29153;42.696;23.218;2023-06-26T09:10:29;94284.05;;;25.88;62.53
43553;BME280;29153;42.696;23.218;2023-06-26T09:12:56;94277.22;;;25.60;65.68
43553;BME280;29153;42.696;23.218;2023-06-26T09:15:26;94276.91;;;25.28;64.31
43553;BME280;29153;42.696;23.218;2023-06-26T09:18:01;94277.59;;;25.42;67.41
43553;BME280;29153;42.696;23.218;2023-06-26T09:20:29;94279.50;;;25.01;65.31
43553;BME280;29153;42.696;23.218;2023-06-26T09:22:57;94286.32;;;24.75;62.09
43553;BME280;29153;42.696;23.218;2023-06-26T09:25:25;94280.80;;;24.81;65.82
43553;BME280;29153;42.696;23.218;2023-06-26T09:27:53;94281.78;;;24.53;66.25
43553;BME280;29153;42.696;23.218;2023-06-26T09:30:20;94275.95;;;24.51;65.95
43553;BME280;29153;42.696;23.218;2023-06-26T09:32:48;94278.69;;;24.67;69.38
43553;BME280;29153;42.696;23.218;2023-06-26T09:35:17;94280.00;;;24.64;61.11
43553;BME280;29153;42.696;23.218;2023-06-26T09:40:20;94276.86;;;25.08;60.59
43553;BME280;29153;42.696;23.218;2023-06-26T09:42:54;94275.40;;;25.34;57.32
43553;BME280;29153;42.696;23.218;2023-06-26T09:45:35;94274.25;;;25.35;56.68
43553;BME280;29153;42.696;23.218;2023-06-26T09:48:09;94276.00;;;25.37;59.65
43553;BME280;29153;42.696;23.218;2023-06-26T09:50:42;94268.62;;;25.34;60.12
43553;BME280;29153;42.696;23.218;2023-06-26T09:53:11;94270.63;;;25.58;56.80
43553;BME280;29153;42.696;23.218;2023-06-26T09:55:44;94267.28;;;25.75;58.26
43553;BME280;29153;42.696;23.218;2023-06-26T09:58:12;94270.56;;;25.74;63.54
43553;BME280;29153;42.696;23.218;2023-06-26T10:00:44;94274.38;;;26.17;56.95
43553;BME280;29153;42.696;23.218;2023-06-26T10:03:11;94271.77;;;26.32;59.81
43553;BME280;29153;42.696;23.218;2023-06-26T10:05:41;94272.41;;;26.38;57.27
43553;BME280;29153;42.696;23.218;2023-06-26T10:08:11;94270.41;;;26.04;54.78
43553;BME280;29153;42.696;23.218;2023-06-26T10:10:40;94278.44;;;25.90;55.31
43553;BME280;29153;42.696;23.218;2023-06-26T10:13:18;94267.23;;;25.95;55.97
43553;BME280;29153;42.696;23.218;2023-06-26T10:15:45;94266.72;;;26.26;54.50
43553;BME280;29153;42.696;23.218;2023-06-26T10:18:15;94264.71;;;25.93;57.03
43553;BME280;29153;42.696;23.218;2023-06-26T10:20:47;94265.69;;;25.98;56.92
43553;BME280;29153;42.696;23.218;2023-06-26T10:23:15;94259.06;;;26.46;56.28
43553;BME280;29153;42.696;23.218;2023-06-26T10:25:48;94255.45;;;26.62;57.11
43553;BME280;29153;42.696;23.218;2023-06-26T10:28:18;94264.79;;;26.65;53.94
43553;BME280;29153;42.696;23.218;2023-06-26T10:30:48;94270.05;;;26.37;53.76
43553;BME280;29153;42.696;23.218;2023-06-26T10:33:17;94212.80;;;25.74;61.26
43553;BME280;29153;42.696;23.218;2023-06-26T10:35:47;94255.31;;;26.79;64.94
43553;BME280;29153;42.696;23.218;2023-06-26T10:38:16;94265.09;;;26.87;53.61
43553;BME280;29153;42.696;23.218;2023-06-26T10:40:47;94268.81;;;26.58;48.44
43553;BME280;29153;42.696;23.218;2023-06-26T10:43:19;94254.46;;;26.95;55.02
43553;BME280;29153;42.696;23.218;2023-06-26T10:45:53;94252.45;;;27.48;51.54
43553;BME280;29153;42.696;23.218;2023-06-26T10:48:18;94262.52;;;27.37;50.01
43553;BME280;29153;42.696;23.218;2023-06-26T10:50:49;94258.81;;;27.35;49.64
43553;BME280;29153;42.696;23.218;2023-06-26T10:56:03;94261.52;;;26.72;48.89
43553;BME280;29153;42.696;23.218;2023-06-26T10:58:41;94252.30;;;26.53;49.43
43553;BME280;29153;42.696;23.218;2023-06-26T11:01:22;94253.87;;;26.23;50.88
43553;BME280;29153;42.696;23.218;2023-06-26T11:04:04;94247.37;;;26.11;54.08
43553;BME280;29153;42.696;23.218;2023-06-26T11:06:33;94238.66;;;26.15;58.44
43553;BME280;29153;42.696;23.218;2023-06-26T11:09:13;94241.38;;;25.61;53.17
43553;BME280;29153;42.696;23.218;2023-06-26T11:14:26;94240.95;;;25.79;59.10
43553;BME280;29153;42.696;23.218;2023-06-26T11:16:57;94246.44;;;25.62;54.44
43553;BME280;29153;42.696;23.218;2023-06-26T11:19:26;94240.54;;;25.16;52.69
43553;BME280;29153;42.696;23.218;2023-06-26T11:22:04;94244.94;;;25.28;55.60
43553;BME280;29153;42.696;23.218;2023-06-26T11:24:34;94235.25;;;25.51;54.36
43553;BME280;29153;42.696;23.218;2023-06-26T11:27:02;94237.81;;;25.77;57.37
43553;BME280;29153;42.696;23.218;2023-06-26T11:29:30;94239.29;;;26.18;55.08
43553;BME280;29153;42.696;23.218;2023-06-26T11:32:02;94233.26;;;26.50;49.64
43553;BME280;29153;42.696;23.218;2023-06-26T11:34:32;94234.25;;;26.51;54.61
43553;BME280;29153;42.696;23.218;2023-06-26T11:37:00;94238.34;;;26.55;52.23
43553;BME280;29153;42.696;23.218;2023-06-26T11:39:28;94237.56;;;26.58;54.90
43553;BME280;29153;42.696;23.218;2023-06-26T11:41:57;94236.95;;;26.48;54.92
43553;BME280;29153;42.696;23.218;2023-06-26T11:44:31;94238.23;;;26.34;55.06
43553;BME280;29153;42.696;23.218;2023-06-26T11:46:59;94227.56;;;26.31;59.59
43553;BME280;29153;42.696;23.218;2023-06-26T11:49:25;94236.39;;;25.94;52.15
43553;BME280;29153;42.696;23.218;2023-06-26T11:51:54;94231.02;;;26.32;54.96
43553;BME280;29153;42.696;23.218;2023-06-26T11:54:26;94229.37;;;26.44;54.04
43553;BME280;29153;42.696;23.218;2023-06-26T11:56:58;94237.78;;;26.24;50.94
43553;BME280;29153;42.696;23.218;2023-06-26T11:59:38;94235.72;;;26.35;52.38
43553;BME280;29153;42.696;23.218;2023-06-26T12:02:10;94238.58;;;26.28;50.56
43553;BME280;29153;42.696;23.218;2023-06-26T12:04:40;94236.73;;;26.16;53.83
43553;BME280;29153;42.696;23.218;2023-06-26T12:07:11;94227.89;;;26.60;53.49
43553;BME280;29153;42.696;23.218;2023-06-26T12:09:46;94228.80;;;26.93;58.60
43553;BME280;29153;42.696;23.218;2023-06-26T12:12:16;94229.36;;;26.85;51.74
43553;BME280;29153;42.696;23.218;2023-06-26T12:14:44;94235.20;;;26.53;49.49
43553;BME280;29153;42.696;23.218;2023-06-26T12:17:13;94235.16;;;26.11;49.17
43553;BME280;29153;42.696;23.218;2023-06-26T12:19:46;94231.70;;;25.87;53.46
43553;BME280;29153;42.696;23.218;2023-06-26T12:22:19;94230.30;;;26.11;49.91
43553;BME280;29153;42.696;23.218;2023-06-26T12:24:47;94232.95;;;26.00;51.77
43553;BME280;29153;42.696;23.218;2023-06-26T12:27:17;94228.20;;;26.14;53.52
43553;BME280;29153;42.696;23.218;2023-06-26T12:29:52;94230.67;;;25.78;50.60
43553;BME280;29153;42.696;23.218;2023-06-26T12:32:26;94223.05;;;25.98;58.04
43553;BME280;29153;42.696;23.218;2023-06-26T12:34:51;94221.53;;;25.77;58.12
43553;BME280;29153;42.696;23.218;2023-06-26T12:37:19;94221.45;;;25.63;57.79
43553;BME280;29153;42.696;23.218;2023-06-26T12:39:51;94225.31;;;25.62;55.88
43553;BME280;29153;42.696;23.218;2023-06-26T12:42:21;94221.45;;;25.46;55.08
43553;BME280;29153;42.696;23.218;2023-06-26T12:44:51;94221.37;;;25.35;54.07
43553;BME280;29153;42.696;23.218;2023-06-26T12:47:25;94221.45;;;25.63;60.70
43553;BME280;29153;42.696;23.218;2023-06-26T12:49:56;94226.80;;;25.56;56.08
43553;BME280;29153;42.696;23.218;2023-06-26T12:52:24;94226.72;;;25.49;52.15
43553;BME280;29153;42.696;23.218;2023-06-26T12:54:53;94220.92;;;25.70;58.16
43553;BME280;29153;42.696;23.218;2023-06-26T12:57:22;94217.77;;;25.89;55.12
43553;BME280;29153;42.696;23.218;2023-06-26T12:59:50;94214.69;;;25.97;60.04
43553;BME280;29153;42.696;23.218;2023-06-26T13:02:18;94209.13;;;26.07;56.30
43553;BME280;29153;42.696;23.218;2023-06-26T13:04:51;94218.45;;;26.37;56.46
43553;BME280;29153;42.696;23.218;2023-06-26T13:07:32;94214.58;;;26.38;56.72
43553;BME280;29153;42.696;23.218;2023-06-26T13:10:00;94218.55;;;26.61;54.70
43553;BME280;29153;42.696;23.218;2023-06-26T13:12:27;94211.38;;;26.56;58.42
43553;BME280;29153;42.696;23.218;2023-06-26T13:14:54;94211.45;;;26.81;53.38
43553;BME280;29153;42.696;23.218;2023-06-26T13:17:21;94210.92;;;26.88;53.28